createdAt,value
2019-04-22T00:00:51.369Z,11.50
2019-04-22T00:03:22.031Z,11.40
2019-04-22T00:06:14.713Z,10.90
2019-04-22T00:08:44.549Z,10.80
2019-04-22T00:11:19.589Z,11.00
2019-04-22T00:13:47.279Z,11.00
2019-04-22T00:16:22.625Z,11.30
2019-04-22T00:19:06.182Z,11.30
2019-04-22T00:21:20.095Z,11.20
2019-04-22T00:23:45.198Z,11.20
2019-04-22T00:26:20.694Z,11.00
2019-04-22T00:28:52.303Z,10.70
2019-04-22T00:31:25.410Z,10.70
2019-04-22T00:33:53.179Z,10.90
2019-04-22T00:36:23.292Z,10.90
2019-04-22T00:38:59.148Z,11.10
2019-04-22T00:41:29.791Z,11.20
2019-04-22T00:43:59.998Z,11.10
2019-04-22T00:46:25.117Z,11.10
2019-04-22T00:49:28.780Z,11.00
2019-04-22T00:51:28.558Z,10.80
2019-04-22T00:53:54.614Z,10.80
2019-04-22T00:56:21.962Z,10.30
2019-04-22T00:58:50.575Z,10.00
2019-04-22T01:01:26.579Z,9.90
2019-04-22T01:06:27.079Z,10.00
2019-04-22T01:08:57.897Z,10.10
2019-04-22T01:11:29.546Z,10.20
2019-04-22T01:14:00.147Z,10.30
2019-04-22T01:18:55.906Z,10.00
2019-04-22T01:21:30.560Z,10.10
2019-04-22T01:23:53.347Z,10.20
2019-04-22T01:26:20.275Z,9.90
2019-04-22T01:28:50.040Z,9.70
2019-04-22T01:31:12.565Z,9.50
2019-04-22T01:33:43.894Z,9.60
2019-04-22T01:36:24.628Z,9.80
2019-04-22T01:38:58.442Z,9.90
2019-04-22T01:41:42.085Z,10.00
2019-04-22T01:44:19.426Z,10.00
2019-04-22T01:46:39.635Z,9.70
2019-04-22T01:48:59.549Z,9.60
2019-04-22T01:51:48.543Z,9.70
2019-04-22T01:54:05.657Z,9.90
2019-04-22T01:56:36.109Z,9.50
2019-04-22T01:58:54.702Z,9.50
2019-04-22T02:01:41.514Z,9.60
2019-04-22T02:04:00.896Z,9.60
2019-04-22T02:06:34.653Z,9.70
2019-04-22T02:09:13.785Z,9.90
2019-04-22T02:11:38.970Z,9.80
2019-04-22T02:14:04.033Z,9.50
2019-04-22T02:16:36.130Z,9.50
2019-04-22T02:19:12.647Z,9.70
2019-04-22T02:21:31.899Z,9.80
2019-04-22T02:24:02.667Z,9.40
2019-04-22T02:26:35.538Z,8.80
2019-04-22T02:29:01.130Z,8.60
2019-04-22T02:31:45.326Z,8.50
2019-04-22T02:34:31.106Z,8.80
2019-04-22T02:39:19.916Z,9.00
2019-04-22T02:41:30.894Z,8.80
2019-04-22T02:44:14.043Z,8.70
2019-04-22T02:47:08.432Z,8.50
2019-04-22T02:51:44.949Z,8.80
2019-04-22T02:59:12.429Z,8.40
2019-04-22T03:01:41.147Z,8.10
2019-04-22T03:09:12.673Z,8.20
2019-04-22T03:14:07.862Z,8.20
2019-04-22T03:16:40.753Z,8.40
2019-04-22T03:19:13.954Z,8.50
2019-04-22T03:21:36.674Z,8.60
2019-04-22T03:29:04.905Z,8.60
2019-04-22T03:35:15.823Z,8.30
2019-04-22T03:39:41.576Z,8.30
2019-04-22T03:42:07.111Z,8.40
2019-04-22T03:44:31.137Z,8.20
2019-04-22T03:47:09.469Z,7.60
2019-04-22T03:49:39.215Z,7.70
2019-04-22T03:57:26.522Z,7.80
2019-04-22T04:02:16.078Z,7.40
2019-04-22T04:04:31.749Z,7.20
2019-04-22T04:09:23.869Z,7.30
2019-04-22T04:11:59.608Z,7.50
2019-04-22T04:14:26.216Z,7.80
2019-04-22T04:19:48.197Z,7.90
2019-04-22T04:21:46.991Z,8.10
2019-04-22T04:32:09.758Z,8.10
2019-04-22T04:34:50.579Z,8.20
2019-04-22T04:39:26.400Z,8.40
2019-04-22T04:42:05.448Z,8.10
2019-04-22T04:44:34.760Z,8.20
2019-04-22T04:47:03.523Z,8.10
2019-04-22T04:49:34.928Z,8.20
2019-04-22T04:51:56.020Z,8.00
2019-04-22T04:54:30.232Z,8.00
2019-04-22T04:56:56.451Z,7.40
2019-04-22T04:59:42.066Z,7.30
2019-04-22T05:01:52.046Z,7.60
2019-04-22T05:04:25.463Z,7.90
2019-04-22T05:09:29.761Z,8.30
2019-04-22T05:12:07.767Z,8.10
2019-04-22T05:14:36.788Z,7.50
2019-04-22T05:16:59.745Z,7.20
2019-04-22T05:21:58.142Z,7.40
2019-04-22T05:24:23.865Z,7.70
2019-04-22T05:27:14.671Z,8.10
2019-04-22T05:31:52.238Z,9.60
2019-04-22T05:34:26.475Z,11.70
2019-04-22T05:39:17.251Z,13.30
2019-04-22T05:41:48.627Z,13.00
2019-04-22T05:44:36.129Z,13.50
2019-04-22T05:46:47.991Z,13.90
2019-04-22T05:49:18.244Z,13.80
2019-04-22T05:51:48.222Z,13.80
2019-04-22T05:54:20.922Z,13.90
2019-04-22T05:56:47.589Z,14.50
2019-04-22T05:59:20.778Z,14.80
2019-04-22T06:04:39.660Z,14.20
2019-04-22T06:06:46.865Z,13.80
2019-04-22T06:09:26.055Z,13.20
2019-04-22T06:11:46.176Z,12.80
2019-04-22T06:14:13.905Z,12.40
2019-04-22T06:16:50.414Z,12.10
2019-04-22T06:19:21.136Z,12.30
2019-04-22T06:21:49.095Z,12.60
2019-04-22T06:24:26.104Z,12.60
2019-04-22T06:29:19.610Z,13.00
2019-04-22T06:32:11.779Z,13.70
2019-04-22T06:34:26.545Z,14.50
2019-04-22T06:36:52.221Z,15.20
2019-04-22T06:41:59.106Z,16.30
2019-04-22T06:44:25.899Z,16.50
2019-04-22T06:46:52.559Z,16.60
2019-04-22T06:49:22.765Z,16.80
2019-04-22T06:51:55.791Z,17.10
2019-04-22T06:54:26.138Z,17.30
2019-04-22T06:56:49.189Z,17.60
2019-04-22T06:59:19.089Z,17.50
2019-04-22T07:01:52.523Z,17.50
2019-04-22T07:04:19.813Z,17.80
2019-04-22T07:06:56.817Z,18.10
2019-04-22T07:11:55.258Z,18.50
2019-04-22T07:14:18.644Z,18.70
2019-04-22T07:16:51.032Z,18.90
2019-04-22T07:19:26.580Z,19.10
2019-04-22T07:21:50.905Z,19.40
2019-04-22T07:24:37.469Z,19.50
2019-04-22T07:26:51.255Z,19.80
2019-04-22T07:29:27.868Z,19.90
2019-04-22T07:31:56.293Z,19.90
2019-04-22T07:34:28.377Z,20.10
2019-04-22T07:36:59.050Z,20.30
2019-04-22T07:39:26.833Z,20.40
2019-04-22T07:41:50.880Z,20.60
2019-04-22T07:44:25.837Z,20.60
2019-04-22T07:46:57.968Z,20.70
2019-04-22T07:49:26.672Z,20.80
2019-04-22T07:51:50.116Z,21.00
2019-04-22T07:54:24.340Z,21.20
2019-04-22T07:57:02.581Z,21.20
2019-04-22T07:59:22.250Z,21.40
2019-04-22T08:01:50.689Z,21.50
2019-04-22T08:04:44.224Z,21.70
2019-04-22T08:06:58.960Z,22.00
2019-04-22T08:09:29.527Z,22.20
2019-04-22T08:11:53.932Z,22.40
2019-04-22T08:14:30.115Z,22.50
2019-04-22T08:17:01.376Z,22.70
2019-04-22T08:21:57.054Z,23.00
2019-04-22T08:24:22.221Z,23.00
2019-04-22T08:26:56.084Z,23.00
2019-04-22T08:29:35.466Z,23.20
2019-04-22T08:31:55.017Z,23.40
2019-04-22T08:39:26.790Z,22.90
2019-04-22T08:41:48.598Z,22.70
2019-04-22T08:44:28.199Z,22.70
2019-04-22T08:46:56.131Z,22.60
2019-04-22T08:49:30.695Z,22.50
2019-04-22T08:51:58.867Z,22.50
2019-04-22T08:54:24.332Z,22.70
2019-04-22T08:56:55.540Z,22.80
2019-04-22T08:59:22.223Z,22.80
2019-04-22T09:01:49.223Z,22.80
2019-04-22T09:04:16.112Z,22.80
2019-04-22T09:07:10.492Z,23.00
2019-04-22T09:09:26.816Z,22.90
2019-04-22T09:11:54.360Z,22.80
2019-04-22T09:14:34.508Z,22.80
2019-04-22T09:17:00.028Z,22.90
2019-04-22T09:19:24.072Z,23.00
2019-04-22T09:24:23.647Z,23.10
2019-04-22T09:26:58.774Z,23.10
2019-04-22T09:29:32.629Z,23.40
2019-04-22T09:32:00.371Z,23.80
2019-04-22T09:34:28.206Z,23.70
2019-04-22T09:36:59.474Z,23.60
2019-04-22T09:39:30.160Z,23.50
2019-04-22T09:42:02.535Z,23.50
2019-04-22T09:44:21.802Z,23.60
2019-04-22T09:46:53.753Z,23.90
2019-04-22T09:49:26.754Z,23.90
2019-04-22T09:52:01.456Z,24.00
2019-04-22T09:54:30.392Z,24.30
2019-04-22T09:56:56.483Z,24.30
2019-04-22T09:59:32.961Z,24.20
2019-04-22T10:04:27.290Z,24.70
2019-04-22T10:06:53.954Z,24.80
2019-04-22T10:09:42.406Z,24.50
2019-04-22T10:11:55.091Z,24.40
2019-04-22T10:14:24.821Z,24.20
2019-04-22T10:16:53.968Z,24.20
2019-04-22T10:19:23.282Z,24.40
2019-04-22T10:22:17.149Z,24.70
2019-04-22T10:24:19.186Z,24.80
2019-04-22T10:26:56.400Z,24.90
2019-04-22T10:29:26.085Z,24.70
2019-04-22T10:31:54.383Z,24.40
2019-04-22T10:34:14.015Z,24.40
2019-04-22T10:36:31.186Z,24.50
2019-04-22T10:39:00.492Z,24.50
2019-04-22T10:41:30.492Z,24.70
2019-04-22T10:43:59.412Z,25.00
2019-04-22T10:46:28.343Z,24.90
2019-04-22T10:48:57.968Z,25.00
2019-04-22T10:51:26.595Z,24.90
2019-04-22T10:53:55.644Z,24.80
2019-04-22T10:56:25.166Z,25.00
2019-04-22T10:58:54.075Z,25.10
2019-04-22T11:01:23.269Z,25.50
2019-04-22T11:03:53.142Z,26.40
2019-04-22T11:06:23.767Z,26.90
2019-04-22T11:08:56.201Z,27.90
2019-04-22T11:11:34.672Z,29.30
2019-04-22T11:13:52.062Z,29.90
2019-04-22T11:16:21.503Z,30.40
2019-04-22T11:18:49.956Z,31.20
2019-04-22T11:21:19.806Z,31.10
2019-04-22T11:23:48.320Z,31.60
2019-04-22T11:26:17.742Z,31.30
2019-04-22T11:28:47.582Z,29.90
2019-04-22T11:31:16.585Z,29.10
2019-04-22T11:33:45.106Z,28.80
2019-04-22T11:36:13.663Z,28.30
2019-04-22T11:38:48.683Z,27.80
2019-04-22T11:41:12.644Z,27.60
2019-04-22T11:43:41.220Z,27.70
2019-04-22T11:46:09.564Z,27.10
2019-04-22T11:48:38.143Z,26.50
2019-04-22T11:51:06.631Z,26.20
2019-04-22T11:53:36.492Z,26.10
2019-04-22T11:56:05.131Z,26.20
2019-04-22T11:58:35.254Z,26.50
2019-04-22T12:01:03.816Z,26.60
2019-04-22T12:03:33.449Z,26.70
2019-04-22T12:06:02.211Z,26.50
2019-04-22T12:08:31.171Z,26.30
2019-04-22T12:11:02.670Z,26.30
2019-04-22T12:13:30.245Z,26.20
2019-04-22T12:15:58.956Z,26.20
2019-04-22T12:18:29.001Z,26.30
2019-04-22T12:20:59.096Z,26.20
2019-04-22T12:23:27.549Z,26.10
2019-04-22T12:26:03.305Z,25.70
2019-04-22T12:28:26.834Z,25.50
2019-04-22T12:30:55.417Z,25.50
2019-04-22T12:33:25.017Z,25.20
2019-04-22T12:35:54.770Z,25.00
2019-04-22T12:38:24.080Z,25.00
2019-04-22T12:40:58.499Z,25.00
2019-04-22T12:43:25.691Z,25.00
2019-04-22T12:45:54.139Z,25.00
2019-04-22T12:48:23.244Z,25.00
2019-04-22T12:50:54.221Z,25.00
2019-04-22T12:53:24.325Z,25.00
2019-04-22T12:55:55.119Z,25.00
2019-04-22T12:58:21.699Z,24.90
2019-04-22T13:00:51.381Z,24.90
2019-04-22T13:03:20.405Z,25.10
2019-04-22T13:05:49.495Z,25.30
2019-04-22T13:08:18.111Z,25.40
2019-04-22T13:10:55.507Z,25.30
2019-04-22T13:13:16.978Z,25.20
2019-04-22T13:15:46.811Z,25.30
2019-04-22T13:18:24.425Z,25.20
2019-04-22T13:20:46.344Z,25.30
2019-04-22T13:23:15.731Z,25.20
2019-04-22T13:25:44.884Z,25.20
2019-04-22T13:28:13.379Z,25.40
2019-04-22T13:30:41.758Z,25.70
2019-04-22T13:33:10.746Z,25.90
2019-04-22T13:35:39.489Z,25.90
2019-04-22T13:38:09.084Z,25.80
2019-04-22T13:40:38.834Z,25.70
2019-04-22T13:43:09.077Z,25.60
2019-04-22T13:45:38.559Z,25.30
2019-04-22T13:48:23.299Z,25.20
2019-04-22T13:51:05.871Z,25.10
2019-04-22T13:58:17.180Z,25.10
2019-04-22T14:00:38.447Z,24.90
2019-04-22T14:03:20.614Z,24.80
2019-04-22T14:05:50.928Z,24.80
2019-04-22T14:08:19.958Z,25.00
2019-04-22T14:10:48.519Z,25.10
2019-04-22T14:13:16.900Z,25.10
2019-04-22T14:15:46.587Z,25.20
2019-04-22T14:18:15.239Z,25.20
2019-04-22T14:20:44.971Z,25.20
2019-04-22T14:23:15.251Z,25.00
2019-04-22T14:25:43.605Z,24.80
2019-04-22T14:28:16.953Z,24.80
2019-04-22T14:30:42.515Z,25.00
2019-04-22T14:33:12.099Z,25.20
2019-04-22T14:35:41.558Z,25.30
2019-04-22T14:38:10.205Z,25.30
2019-04-22T14:40:40.891Z,25.40
2019-04-22T14:43:28.995Z,25.40
2019-04-22T14:46:12.311Z,25.40
2019-04-22T14:48:38.729Z,25.20
2019-04-22T14:50:56.062Z,25.10
2019-04-22T14:53:30.788Z,25.00
2019-04-22T14:55:40.366Z,25.00
2019-04-22T14:58:09.101Z,25.00
2019-04-22T15:00:38.183Z,24.80
2019-04-22T15:03:07.965Z,24.90
2019-04-22T15:05:37.172Z,24.80
2019-04-22T15:08:06.791Z,24.80
2019-04-22T15:10:36.088Z,24.70
2019-04-22T15:13:05.423Z,24.60
2019-04-22T15:15:42.071Z,24.50
2019-04-22T15:18:24.044Z,24.40
2019-04-22T15:21:11.137Z,24.40
2019-04-22T15:23:40.469Z,24.40
2019-04-22T15:26:08.864Z,24.20
2019-04-22T15:28:37.555Z,24.20
2019-04-22T15:31:06.104Z,24.20
2019-04-22T15:33:35.264Z,24.20
2019-04-22T15:36:03.709Z,24.10
2019-04-22T15:38:32.272Z,24.10
2019-04-22T15:41:00.980Z,24.10
2019-04-22T15:43:31.688Z,24.20
2019-04-22T15:46:02.315Z,24.20
2019-04-22T15:48:32.215Z,24.20
2019-04-22T15:51:00.513Z,24.30
2019-04-22T15:53:29.596Z,24.40
2019-04-22T15:55:58.827Z,24.30
2019-04-22T15:58:28.169Z,24.40
2019-04-22T16:01:08.766Z,24.50
2019-04-22T16:03:26.920Z,24.50
2019-04-22T16:05:55.320Z,24.60
2019-04-22T16:08:24.734Z,24.60
2019-04-22T16:10:53.707Z,24.60
2019-04-22T16:13:26.512Z,24.60
2019-04-22T16:15:52.422Z,24.70
2019-04-22T16:18:22.249Z,24.60
2019-04-22T16:20:52.278Z,24.60
2019-04-22T16:23:25.997Z,24.60
2019-04-22T16:26:11.742Z,24.60
2019-04-22T16:28:40.163Z,24.60
2019-04-22T16:31:09.257Z,24.40
2019-04-22T16:33:41.386Z,24.50
2019-04-22T16:36:09.026Z,24.40
2019-04-22T16:38:37.469Z,24.40
2019-04-22T16:41:06.600Z,24.20
2019-04-22T16:43:36.352Z,24.20
2019-04-22T16:46:05.643Z,24.10
2019-04-22T16:48:35.684Z,24.00
2019-04-22T16:51:04.438Z,24.00
2019-04-22T16:53:32.923Z,24.00
2019-04-22T16:56:02.667Z,23.90
2019-04-22T16:58:32.615Z,23.90
2019-04-22T17:01:02.781Z,23.80
2019-04-22T17:03:40.488Z,23.90
2019-04-22T17:06:11.778Z,23.80
2019-04-22T17:08:40.424Z,23.80
2019-04-22T17:11:09.690Z,23.70
2019-04-22T17:13:39.891Z,23.60
2019-04-22T17:16:09.914Z,23.60
2019-04-22T17:18:39.407Z,23.50
2019-04-22T17:21:09.199Z,23.50
2019-04-22T17:23:38.149Z,23.40
2019-04-22T17:26:06.619Z,23.40
2019-04-22T17:28:35.469Z,23.30
2019-04-22T17:31:04.670Z,23.20
2019-04-22T17:33:34.866Z,23.10
2019-04-22T17:36:03.548Z,23.10
2019-04-22T17:38:42.765Z,23.00
2019-04-22T17:41:20.260Z,22.90
2019-04-22T17:46:20.290Z,22.80
2019-04-22T17:48:59.426Z,22.80
2019-04-22T17:56:31.903Z,22.70
2019-04-22T17:58:58.787Z,22.70
2019-04-22T18:01:29.523Z,22.60
2019-04-22T18:03:45.678Z,22.50
2019-04-22T18:06:25.990Z,22.50
2019-04-22T18:08:57.509Z,22.40
2019-04-22T18:11:37.795Z,22.30
2019-04-22T18:14:11.687Z,22.30
2019-04-22T18:16:29.419Z,22.30
2019-04-22T18:19:00.809Z,22.20
2019-04-22T18:21:28.898Z,22.10
2019-04-22T18:23:49.378Z,22.00
2019-04-22T18:26:26.278Z,22.00
2019-04-22T18:29:02.468Z,21.80
2019-04-22T18:31:21.787Z,21.80
2019-04-22T18:33:54.610Z,21.70
2019-04-22T18:36:29.193Z,21.60
2019-04-22T18:39:06.284Z,21.50
2019-04-22T18:41:30.473Z,21.40
2019-04-22T18:44:04.287Z,21.40
2019-04-22T18:46:35.177Z,21.20
2019-04-22T18:49:03.330Z,21.10
2019-04-22T18:51:43.841Z,21.00
2019-04-22T18:54:19.741Z,20.80
2019-04-22T18:56:50.512Z,20.80
2019-04-22T18:59:14.599Z,20.60
2019-04-22T19:01:37.742Z,20.50
2019-04-22T19:04:15.190Z,20.30
2019-04-22T19:07:01.762Z,20.20
2019-04-22T19:09:38.296Z,20.10
2019-04-22T19:12:09.040Z,20.00
2019-04-22T19:14:33.397Z,19.90
2019-04-22T19:17:15.302Z,19.80
2019-04-22T19:19:38.379Z,19.70
2019-04-22T19:22:02.589Z,19.60
2019-04-22T19:24:24.217Z,19.30
2019-04-22T19:29:33.192Z,19.10
2019-04-22T19:32:01.810Z,19.20
2019-04-22T19:34:31.740Z,19.20
2019-04-22T19:37:02.139Z,19.20
2019-04-22T19:39:27.583Z,19.10
2019-04-22T19:42:00.890Z,19.00
2019-04-22T19:44:36.239Z,18.90
2019-04-22T19:47:18.161Z,19.00
2019-04-22T19:49:38.430Z,18.80
2019-04-22T19:52:05.999Z,18.70
2019-04-22T19:54:29.064Z,18.60
2019-04-22T19:56:53.135Z,18.60
2019-04-22T19:59:23.600Z,18.60
2019-04-22T20:02:04.346Z,18.50
2019-04-22T20:04:49.356Z,18.50
2019-04-22T20:07:11.224Z,18.50
2019-04-22T20:09:43.791Z,18.60
2019-04-22T20:12:13.863Z,18.70
2019-04-22T20:14:46.305Z,18.70
2019-04-22T20:17:09.692Z,18.80
2019-04-22T20:19:50.173Z,18.90
2019-04-22T20:22:30.251Z,18.90
2019-04-22T20:24:47.089Z,18.90
2019-04-22T20:27:31.773Z,19.00
2019-04-22T20:30:02.490Z,19.00
2019-04-22T20:32:41.297Z,19.00
2019-04-22T20:35:17.894Z,19.00
2019-04-22T20:37:47.227Z,19.00
2019-04-22T20:40:16.882Z,19.10
2019-04-22T20:42:48.600Z,19.00
2019-04-22T20:45:18.073Z,19.00
2019-04-22T20:47:39.561Z,19.10
2019-04-22T20:50:17.512Z,19.00
2019-04-22T20:55:07.998Z,19.10
2019-04-22T20:57:50.003Z,19.00
2019-04-22T21:00:08.923Z,19.00
2019-04-22T21:02:32.624Z,19.00
2019-04-22T21:05:13.460Z,18.90
2019-04-22T21:07:49.875Z,18.80
2019-04-22T21:10:14.542Z,18.80
2019-04-22T21:12:39.750Z,18.70
2019-04-22T21:15:25.237Z,18.70
2019-04-22T21:17:45.807Z,18.60
2019-04-22T21:20:26.217Z,18.60
2019-04-22T21:22:48.192Z,18.70
2019-04-22T21:25:15.314Z,18.70
2019-04-22T21:27:52.703Z,18.60
2019-04-22T21:30:19.981Z,18.60
2019-04-22T21:32:45.114Z,18.60
2019-04-22T21:35:32.124Z,18.60
2019-04-22T21:37:51.605Z,18.50
2019-04-22T21:42:58.331Z,18.50
2019-04-22T21:45:14.663Z,18.30
2019-04-22T21:47:57.743Z,18.30
2019-04-22T21:50:35.923Z,18.30
2019-04-22T21:52:56.903Z,18.40
2019-04-22T21:55:24.404Z,18.30
2019-04-22T21:57:57.277Z,18.30
2019-04-22T22:00:31.112Z,18.30
2019-04-22T22:02:52.857Z,18.30
2019-04-22T22:05:15.483Z,18.30
2019-04-22T22:07:33.303Z,18.30
2019-04-22T22:10:22.845Z,18.30
2019-04-22T22:12:54.853Z,18.20
2019-04-22T22:15:18.588Z,18.20
2019-04-22T22:17:51.509Z,18.20
2019-04-22T22:20:14.788Z,18.20
2019-04-22T22:23:16.926Z,18.20
2019-04-22T22:25:19.717Z,18.20
2019-04-22T22:27:47.539Z,18.10
2019-04-22T22:32:58.727Z,18.00
2019-04-22T22:35:20.741Z,18.10
2019-04-22T22:37:50.319Z,18.00
2019-04-22T22:40:09.303Z,18.00
2019-04-22T22:42:38.728Z,17.90
2019-04-22T22:45:16.865Z,17.90
2019-04-22T22:47:53.385Z,17.80
2019-04-22T22:50:20.057Z,17.90
2019-04-22T22:52:58.912Z,17.90
2019-04-22T22:55:21.988Z,18.00
2019-04-22T22:57:49.871Z,18.00
2019-04-22T23:00:19.404Z,17.90
2019-04-22T23:03:06.978Z,17.90
2019-04-22T23:05:26.049Z,17.90
2019-04-22T23:07:54.164Z,17.80
2019-04-22T23:10:26.733Z,17.90
2019-04-22T23:12:55.694Z,17.90
2019-04-22T23:15:20.384Z,17.90
2019-04-22T23:17:34.276Z,17.90
2019-04-22T23:20:04.969Z,17.80
2019-04-22T23:22:50.893Z,17.90
2019-04-22T23:25:27.117Z,17.90
2019-04-22T23:27:57.094Z,17.80
2019-04-22T23:30:25.427Z,17.80
2019-04-22T23:33:03.383Z,17.70
2019-04-22T23:35:43.077Z,17.70
2019-04-22T23:38:20.038Z,17.60
2019-04-22T23:40:47.779Z,17.40
2019-04-22T23:43:30.595Z,17.30
2019-04-22T23:45:50.380Z,17.40
2019-04-22T23:48:14.127Z,17.30
2019-04-22T23:50:51.083Z,17.30
2019-04-22T23:53:55.492Z,17.40
2019-04-22T23:56:03.199Z,17.30
2019-04-22T23:58:47.052Z,17.20
